Aérodrome :







RETROUVEZ-NOUS SUR...

 
LOGIN :

S'inscrire | Disclaimer

   EN    FR    IT 

 









Légende :    VFR   VFR Marginal   IFR   IFR Intensif   IFR Très Intensif
Visi : 
Plafond : 
>= 8 km
>= 3000ft
5 à 8 km
1000 à 3000 ft
1500m à 5 km
500 à 1000 ft
800 à 1500m
200 à 500 ft
< 800m
< 200 ft
Symboles :   Orages  Brouillard  Fortes neiges  Fortes précipitations  Vent > 20 kt






- Altitude de l'aérodrome : 36 ft
- Code IATA : PTP


TFFR - Le Raizet

DERNIER METAR :
  • 270930Z AUTO 10003KT 9999 FEW019 SCT030 26/24 Q1014

METARs EXPIRÉS :
  • 270900Z AUTO 12004KT 9999 FEW019 25/23 Q1014
  • 270830Z AUTO 14005KT CAVOK 25/23 Q1014
  • 270800Z AUTO 12004KT 9999 ///TCU 25/24 Q1014
  • 270730Z AUTO 13004KT 9999 FEW021 25/24 Q1014
  • 270700Z AUTO 11004KT 9999 FEW021/// SCT042/// BKN180/// ///TCU 26/24 Q1014

TAF TAF TFFR
Valide du 27 à 00h jusqu'au 28 à 00h UTC


262200Z 2700/2724 13010KT 9999 SCT025 SCT050
PROB30
TEMPO 2700/2707 4000 SHRA SCT018TCU
PROB40
TEMPO 2703/2710 VRB03KT
PROB40
TEMPO 2716/2724 2500 SHRA BKN018TCU
FIR TTZP / Amérique du Nord



MET'MAP, la Météo Aéronautique d'un coup d'oeil ! - Copyright ORBIFLY Décembre 2007 - Disclaimer

ORBIFLY MET'MAP TEAM :

Programmation & Développement : Alexandra Zaïnal
Sur une idée originale de : Baudouin d'Aumeries
Assistance à la programmation : Marc-Olivier Méhu
Soutien technique & logistique : Manuel Goepfert

Contact : metmap@orbifly.com




SOURCES & CREDITS :

   NOAA